Time;durP1;ratioP1;P1;durP2;ratioP2;P2;SDS_P1;SDS_P2;PMS_P1;PMS_P2;Temp;Humidity;BMP_temperature;BMP_pressure;BME280_temperature;BME280_humidity;BME280_pressure;Samples;Min_cycle;Max_cycle;Signal;HPM_P1;HPM_P2
2022/09/23 00:00:40;;;;;;;0.35;0.32;;;21.60;68.40;;;;;;5136082;27;45292;-74
2022/09/23 00:03:08;;;;;;;1.65;0.63;;;21.60;68.40;;;;;;5145368;27;46288;-74
2022/09/23 00:05:36;;;;;;;1.02;0.52;;;21.60;68.50;;;;;;5124678;27;45475;-74
2022/09/23 00:08:05;;;;;;;0.60;0.47;;;21.60;68.50;;;;;;5145646;27;45490;-74
2022/09/23 00:10:33;;;;;;;0.32;0.32;;;21.60;68.60;;;;;;5137950;27;45463;-74
2022/09/23 00:13:00;;;;;;;0.60;0.50;;;21.60;68.40;;;;;;5141501;27;48523;-74
2022/09/23 00:15:28;;;;;;;0.50;0.50;;;21.60;68.50;;;;;;5139084;27;45558;-74
2022/09/23 00:17:57;;;;;;;0.40;0.25;;;21.60;68.20;;;;;;5146485;27;45374;-74
2022/09/23 00:20:24;;;;;;;0.75;0.40;;;21.60;68.10;;;;;;5144691;27;45284;-74
2022/09/23 00:22:52;;;;;;;0.65;0.40;;;21.60;68.30;;;;;;5145953;27;46383;-73
2022/09/23 00:25:20;;;;;;;0.45;0.45;;;21.60;68.40;;;;;;5128900;27;45306;-74
2022/09/23 00:27:48;;;;;;;1.13;0.43;;;21.60;68.40;;;;;;5127714;27;45355;-74
2022/09/23 00:30:17;;;;;;;0.70;0.50;;;21.60;68.10;;;;;;5141855;27;45651;-74
2022/09/23 00:32:44;;;;;;;0.57;0.40;;;21.60;68.20;;;;;;5145789;27;47509;-74
2022/09/23 00:35:11;;;;;;;0.40;0.30;;;21.60;68.20;;;;;;5139617;27;45496;-74
2022/09/23 00:37:38;;;;;;;0.40;0.30;;;21.60;68.10;;;;;;5141930;27;45358;-74
2022/09/23 00:40:07;;;;;;;0.52;0.47;;;21.60;68.30;;;;;;5123759;27;45327;-74
2022/09/23 00:42:36;;;;;;;0.50;0.50;;;21.60;68.10;;;;;;5146282;27;45457;-74
2022/09/23 00:45:06;;;;;;;0.90;0.40;;;21.60;68.20;;;;;;5132721;27;45207;-74
2022/09/23 00:47:39;;;;;;;0.68;0.40;;;21.60;68.40;;;;;;5136771;27;45415;-74
2022/09/23 00:50:11;;;;;;;0.40;0.40;;;21.60;68.30;;;;;;5134971;27;45273;-74
2022/09/23 00:52:39;;;;;;;0.45;0.40;;;21.60;68.40;;;;;;5144626;27;45483;-73
2022/09/23 00:55:10;;;;;;;0.50;0.40;;;21.60;68.50;;;;;;5141946;27;45363;-73
2022/09/23 00:57:40;;;;;;;0.40;0.40;;;21.60;68.50;;;;;;5144538;27;45282;-74
2022/09/23 01:00:08;;;;;;;0.50;0.50;;;21.60;68.50;;;;;;5144501;27;45395;-74
2022/09/23 01:02:36;;;;;;;0.57;0.50;;;21.60;68.50;;;;;;5141219;27;45480;-74
2022/09/23 01:05:06;;;;;;;0.75;0.30;;;21.60;68.60;;;;;;5132987;27;45359;-74
2022/09/23 01:07:33;;;;;;;0.50;0.43;;;21.60;68.60;;;;;;5143929;27;45338;-74
2022/09/23 01:10:02;;;;;;;0.98;0.60;;;21.60;68.70;;;;;;5133783;27;45444;-74
2022/09/23 01:12:49;;;;;;;3.35;0.73;;;21.60;68.40;;;;;;5128608;27;45393;-75
2022/09/23 01:15:21;;;;;;;0.57;0.45;;;21.60;69.50;;;;;;5141253;27;45335;-74
2022/09/23 01:17:57;;;;;;;0.98;0.52;;;21.60;68.50;;;;;;5144964;27;45417;-74
2022/09/23 01:20:55;;;;;;;0.95;0.55;;;21.60;68.50;;;;;;5145368;27;45454;-74
2022/09/23 01:24:02;;;;;;;0.50;0.50;;;21.60;68.40;;;;;;5136652;27;47008;-74
2022/09/23 01:26:52;;;;;;;0.50;0.50;;;21.60;68.40;;;;;;5053738;28;45554;-75
2022/09/23 01:30:02;;;;;;;0.57;0.40;;;21.60;68.40;;;;;;5139091;27;45496;-74
2022/09/23 01:32:41;;;;;;;0.70;0.38;;;21.60;68.40;;;;;;5125290;27;45509;-74
2022/09/23 01:35:15;;;;;;;0.80;0.45;;;21.60;68.30;;;;;;5124630;27;45527;-74
2022/09/23 01:37:50;;;;;;;0.32;0.30;;;21.60;68.30;;;;;;5126392;27;46410;-74
2022/09/23 01:40:21;;;;;;;0.47;0.40;;;21.60;68.40;;;;;;5143236;27;45289;-73
2022/09/23 01:42:53;;;;;;;1.10;0.68;;;21.60;68.40;;;;;;5129979;27;45395;-74
2022/09/23 01:45:26;;;;;;;1.15;0.60;;;21.60;68.20;;;;;;5133419;27;47519;-74
2022/09/23 01:48:00;;;;;;;0.85;0.50;;;21.60;68.20;;;;;;5144097;27;45381;-74
2022/09/23 01:53:22;;;;;;;1.75;0.50;;;21.60;68.50;;;;;;5140891;27;45224;-75
2022/09/23 01:55:51;;;;;;;1.17;0.50;;;21.60;68.30;;;;;;5132908;27;47343;-74
2022/09/23 01:58:24;;;;;;;0.88;0.50;;;21.60;68.30;;;;;;5138408;27;45405;-74
2022/09/23 02:00:58;;;;;;;0.40;0.40;;;21.60;68.40;;;;;;5145762;27;45346;-74
2022/09/23 02:03:31;;;;;;;0.65;0.50;;;21.60;68.40;;;;;;5125161;27;45584;-74
2022/09/23 02:06:02;;;;;;;0.65;0.50;;;21.60;68.50;;;;;;5126208;27;45517;-73
2022/09/23 02:08:34;;;;;;;0.52;0.40;;;21.60;68.60;;;;;;5137385;27;45255;-74
2022/09/23 02:11:05;;;;;;;0.40;0.40;;;21.50;68.40;;;;;;5146510;27;45283;-74
2022/09/23 02:13:38;;;;;;;0.43;0.43;;;21.50;68.40;;;;;;5141001;27;45469;-74
2022/09/23 02:16:12;;;;;;;0.70;0.60;;;21.50;66.60;;;;;;5128232;27;45345;-74
2022/09/23 02:18:46;;;;;;;0.43;0.40;;;21.60;66.70;;;;;;5136243;27;46605;-73
2022/09/23 02:21:14;;;;;;;0.75;0.60;;;21.50;66.40;;;;;;5147579;27;45282;-73
2022/09/23 02:23:45;;;;;;;0.63;0.50;;;21.50;66.30;;;;;;5148464;27;45584;-74
2022/09/23 02:26:19;;;;;;;0.63;0.43;;;21.50;66.20;;;;;;5145515;27;46585;-74
2022/09/23 02:28:51;;;;;;;0.73;0.52;;;21.60;66.00;;;;;;5143592;27;45477;-74
2022/09/23 02:31:30;;;;;;;0.50;0.50;;;21.50;65.90;;;;;;5147090;27;45280;-74
2022/09/23 02:34:08;;;;;;;0.68;0.50;;;21.60;65.70;;;;;;5138908;27;45358;-74
2022/09/23 02:36:43;;;;;;;0.60;0.60;;;21.50;65.90;;;;;;5142491;27;47788;-74
2022/09/23 02:39:13;;;;;;;0.40;0.40;;;21.50;65.70;;;;;;5147407;27;45352;-73
2022/09/23 02:41:49;;;;;;;0.50;0.50;;;21.60;65.20;;;;;;5143833;27;45296;-74
2022/09/23 02:44:18;;;;;;;0.68;0.60;;;21.50;65.60;;;;;;5127892;27;45384;-74
2022/09/23 02:46:45;;;;;;;0.60;0.50;;;21.50;65.30;;;;;;5145784;27;45525;-74
2022/09/23 02:49:18;;;;;;;0.50;0.50;;;21.50;65.20;;;;;;5144297;27;45363;-74
2022/09/23 02:51:46;;;;;;;0.60;0.45;;;21.50;65.40;;;;;;5144529;27;45497;-74
2022/09/23 02:54:15;;;;;;;0.40;0.40;;;21.50;65.40;;;;;;5146077;27;45742;-74
2022/09/23 02:56:43;;;;;;;0.40;0.40;;;21.50;65.00;;;;;;5155350;27;47094;-74
2022/09/23 02:59:10;;;;;;;0.30;0.30;;;21.50;65.30;;;;;;5147284;27;45395;-73
2022/09/23 03:01:45;;;;;;;0.60;0.50;;;21.60;65.20;;;;;;5138990;27;45366;-74
2022/09/23 03:04:21;;;;;;;0.40;0.40;;;21.50;66.30;;;;;;5141070;27;45262;-74
2022/09/23 03:07:00;;;;;;;0.50;0.50;;;21.50;65.10;;;;;;5147778;27;45709;-74
2022/09/23 03:09:31;;;;;;;0.30;0.30;;;21.50;65.30;;;;;;5146096;27;46390;-74
2022/09/23 03:12:09;;;;;;;0.90;0.57;;;21.60;65.40;;;;;;5147271;27;45335;-74
2022/09/23 03:14:43;;;;;;;0.82;0.45;;;21.60;65.10;;;;;;5135582;27;45402;-74
2022/09/23 03:17:14;;;;;;;0.68;0.40;;;21.50;65.10;;;;;;5144260;27;46098;-74
2022/09/23 03:19:47;;;;;;;0.50;0.50;;;21.60;65.20;;;;;;5140866;27;45482;-74
2022/09/23 03:22:19;;;;;;;0.77;0.57;;;21.50;65.00;;;;;;5151701;27;45301;-74
2022/09/23 03:24:47;;;;;;;0.70;0.40;;;21.50;65.00;;;;;;5142365;27;45237;-74
2022/09/23 03:27:18;;;;;;;1.00;0.60;;;21.60;65.10;;;;;;5146762;27;45637;-74
2022/09/23 03:29:48;;;;;;;0.30;0.30;;;21.50;65.00;;;;;;5141905;27;45366;-74
2022/09/23 03:32:17;;;;;;;0.68;0.50;;;21.50;64.90;;;;;;5142758;27;45264;-74
2022/09/23 03:34:48;;;;;;;0.30;0.30;;;21.50;65.00;;;;;;5143841;27;45373;-74
2022/09/23 03:37:20;;;;;;;0.55;0.47;;;21.60;65.00;;;;;;5142121;27;46304;-74
2022/09/23 03:39:51;;;;;;;0.43;0.40;;;21.50;64.90;;;;;;5147064;27;45225;-74
2022/09/23 03:42:22;;;;;;;0.60;0.40;;;21.50;64.90;;;;;;5147833;27;45317;-73
2022/09/23 03:44:52;;;;;;;0.65;0.30;;;21.50;64.50;;;;;;5146149;27;45469;-74
2022/09/23 03:47:20;;;;;;;0.60;0.50;;;21.50;64.90;;;;;;5150556;27;45288;-74
2022/09/23 03:49:50;;;;;;;0.57;0.55;;;21.50;64.80;;;;;;5146292;27;45370;-74
2022/09/23 03:52:18;;;;;;;0.22;0.22;;;21.50;64.70;;;;;;5146366;27;45429;-74
2022/09/23 03:54:45;;;;;;;0.40;0.40;;;21.50;64.70;;;;;;5147016;27;45436;-74
2022/09/23 03:57:13;;;;;;;0.75;0.65;;;21.50;64.90;;;;;;5146587;27;47971;-74
2022/09/23 03:59:40;;;;;;;0.40;0.40;;;21.50;64.50;;;;;;5144780;27;45355;-74
2022/09/23 04:02:07;;;;;;;0.77;0.70;;;21.50;65.60;;;;;;5139295;27;45457;-74
2022/09/23 04:04:37;;;;;;;0.40;0.35;;;21.50;64.40;;;;;;5138277;27;45317;-74
2022/09/23 04:07:06;;;;;;;0.93;0.40;;;21.50;64.70;;;;;;5146393;27;47227;-74
2022/09/23 04:09:32;;;;;;;0.80;0.50;;;21.50;64.40;;;;;;5145770;27;45391;-74
2022/09/23 04:11:59;;;;;;;0.55;0.40;;;21.50;64.60;;;;;;5146113;27;45539;-74
2022/09/23 04:14:26;;;;;;;0.45;0.45;;;21.50;64.30;;;;;;5134497;27;45444;-74
2022/09/23 04:16:53;;;;;;;0.50;0.38;;;21.50;64.60;;;;;;5141166;27;46410;-74
2022/09/23 04:19:20;;;;;;;0.73;0.60;;;21.50;64.50;;;;;;5144664;27;45436;-74
2022/09/23 04:21:47;;;;;;;0.47;0.45;;;21.50;64.40;;;;;;5146183;27;45390;-74
2022/09/23 04:24:16;;;;;;;0.43;0.43;;;21.50;64.30;;;;;;5145998;27;45333;-74
2022/09/23 04:26:43;;;;;;;0.73;0.40;;;21.50;64.30;;;;;;5146533;27;46602;-74
2022/09/23 04:29:10;;;;;;;0.32;0.32;;;21.50;64.50;;;;;;5142813;27;45415;-74
2022/09/23 04:31:38;;;;;;;0.52;0.43;;;21.50;64.20;;;;;;5154115;27;45454;-74
2022/09/23 04:34:04;;;;;;;0.70;0.50;;;21.50;64.10;;;;;;5142968;27;45349;-74
2022/09/23 04:36:31;;;;;;;0.50;0.40;;;21.50;64.20;;;;;;5146280;27;46844;-74
2022/09/23 04:38:58;;;;;;;0.93;0.57;;;21.50;64.20;;;;;;5144327;27;45448;-74
2022/09/23 04:41:26;;;;;;;0.40;0.40;;;21.50;64.10;;;;;;5145986;27;45417;-74
2022/09/23 04:43:53;;;;;;;1.40;0.40;;;21.50;63.80;;;;;;5139701;27;45422;-74
2022/09/23 04:46:20;;;;;;;0.47;0.47;;;21.50;63.80;;;;;;5139477;27;46609;-74
2022/09/23 04:48:46;;;;;;;1.15;0.50;;;21.50;64.00;;;;;;5146447;27;45382;-74
2022/09/23 04:51:15;;;;;;;0.30;0.30;;;21.50;63.80;;;;;;5144995;27;45579;-74
2022/09/23 04:53:44;;;;;;;0.50;0.43;;;21.50;64.00;;;;;;5144410;27;45406;-74
2022/09/23 04:56:13;;;;;;;0.30;0.30;;;21.50;64.00;;;;;;5143282;27;46996;-74
2022/09/23 04:58:42;;;;;;;0.57;0.38;;;21.50;64.10;;;;;;5144549;27;45397;-74
2022/09/23 05:01:11;;;;;;;0.30;0.30;;;21.50;63.70;;;;;;5144163;27;45327;-74
2022/09/23 05:03:39;;;;;;;0.50;0.40;;;21.50;63.70;;;;;;5145008;27;45351;-74
2022/09/23 05:06:07;;;;;;;0.43;0.40;;;21.50;63.90;;;;;;5140310;27;46098;-74
2022/09/23 05:08:35;;;;;;;0.50;0.40;;;21.50;64.10;;;;;;5126987;27;45524;-74
2022/09/23 05:11:04;;;;;;;0.82;0.50;;;21.50;64.00;;;;;;5144064;27;45272;-74
2022/09/23 05:13:32;;;;;;;0.60;0.50;;;21.50;63.90;;;;;;5144133;27;45471;-74
2022/09/23 05:16:02;;;;;;;0.50;0.50;;;21.50;63.90;;;;;;5145281;27;46344;-74
2022/09/23 05:18:31;;;;;;;0.65;0.57;;;21.50;63.90;;;;;;5138402;27;45395;-75
2022/09/23 05:20:58;;;;;;;0.57;0.35;;;21.50;63.90;;;;;;5145916;27;45497;-74
2022/09/23 05:23:26;;;;;;;0.57;0.57;;;21.50;64.00;;;;;;5143406;27;45368;-74
2022/09/23 05:25:57;;;;;;;0.60;0.60;;;21.50;64.00;;;;;;5142568;27;47711;-74
2022/09/23 05:28:25;;;;;;;0.75;0.45;;;21.50;63.80;;;;;;5144064;27;45912;-74
2022/09/23 05:30:51;;;;;;;0.40;0.40;;;21.40;64.00;;;;;;5145440;27;45225;-74
2022/09/23 05:33:19;;;;;;;0.40;0.40;;;21.50;64.10;;;;;;5140490;27;45221;-74
2022/09/23 05:35:47;;;;;;;1.27;0.50;;;21.50;63.80;;;;;;5144578;27;45292;-73
2022/09/23 05:38:15;;;;;;;0.52;0.50;;;21.50;63.80;;;;;;5145117;27;45307;-74
2022/09/23 05:40:42;;;;;;;0.32;0.30;;;21.50;64.00;;;;;;5144269;27;45316;-73
2022/09/23 05:43:09;;;;;;;0.40;0.40;;;21.40;63.90;;;;;;5144744;27;45498;-74
2022/09/23 05:45:36;;;;;;;0.32;0.32;;;21.50;64.50;;;;;;5141444;27;46506;-74
2022/09/23 05:48:03;;;;;;;0.45;0.40;;;21.40;65.00;;;;;;5141986;27;45615;-74
2022/09/23 05:50:31;;;;;;;0.80;0.45;;;21.40;65.10;;;;;;5142044;27;45370;-73
2022/09/23 05:52:58;;;;;;;0.52;0.40;;;21.40;65.20;;;;;;5138095;27;45419;-74
2022/09/23 05:55:25;;;;;;;0.40;0.40;;;21.40;65.30;;;;;;5144416;27;46359;-74
2022/09/23 05:57:52;;;;;;;0.22;0.22;;;21.40;65.40;;;;;;5145745;27;45347;-74
2022/09/23 06:00:19;;;;;;;0.50;0.40;;;21.50;65.40;;;;;;5143081;27;45317;-74
2022/09/23 06:02:47;;;;;;;0.73;0.40;;;21.50;65.40;;;;;;5140454;27;45371;-74
2022/09/23 06:05:15;;;;;;;0.32;0.32;;;21.50;65.40;;;;;;5144785;27;47862;-74
2022/09/23 06:07:43;;;;;;;0.75;0.50;;;21.40;65.70;;;;;;5141031;27;46176;-74
2022/09/23 06:10:10;;;;;;;0.50;0.35;;;21.40;65.80;;;;;;5143369;27;45374;-74
2022/09/23 06:12:37;;;;;;;0.52;0.43;;;21.50;65.90;;;;;;5137781;27;45217;-74
2022/09/23 06:15:05;;;;;;;0.63;0.52;;;21.40;65.90;;;;;;5140205;27;45417;-74
2022/09/23 06:17:31;;;;;;;0.80;0.60;;;21.50;66.00;;;;;;5144404;27;45385;-74
2022/09/23 06:19:58;;;;;;;1.08;0.60;;;21.50;66.00;;;;;;5144026;27;45399;-75
2022/09/23 06:22:25;;;;;;;0.35;0.35;;;21.50;66.00;;;;;;5146031;27;45493;-74
2022/09/23 06:24:53;;;;;;;0.73;0.52;;;21.50;66.00;;;;;;5147592;27;48264;-73
2022/09/23 06:27:20;;;;;;;0.40;0.30;;;21.50;66.10;;;;;;5127625;27;45433;-74
2022/09/23 06:29:48;;;;;;;0.68;0.47;;;21.50;66.10;;;;;;5141277;27;45402;-74
2022/09/23 06:32:15;;;;;;;0.80;0.40;;;21.50;66.30;;;;;;5143534;27;45456;-74
2022/09/23 06:34:44;;;;;;;0.57;0.50;;;21.50;66.30;;;;;;5144603;27;47297;-73
2022/09/23 06:37:11;;;;;;;0.28;0.28;;;21.50;66.00;;;;;;5143957;27;45429;-74
2022/09/23 06:39:38;;;;;;;0.98;0.55;;;21.50;65.70;;;;;;5145287;27;45465;-74
2022/09/23 06:42:08;;;;;;;0.60;0.40;;;21.50;65.00;;;;;;5143708;27;45573;-73
2022/09/23 06:44:38;;;;;;;0.68;0.50;;;21.60;64.50;;;;;;5138765;27;47977;-73
2022/09/23 06:47:07;;;;;;;0.68;0.50;;;21.60;64.30;;;;;;5144171;27;45731;-74
2022/09/23 06:49:34;;;;;;;0.68;0.52;;;21.60;64.10;;;;;;5143639;27;45414;-74
2022/09/23 06:52:01;;;;;;;0.75;0.50;;;21.60;63.90;;;;;;5137414;27;45541;-74
2022/09/23 06:54:36;;;;;;;1.15;0.60;;;21.60;64.10;;;;;;5147162;27;46391;-74
2022/09/23 06:57:03;;;;;;;0.70;0.50;;;21.60;64.20;;;;;;5148138;27;45429;-74
2022/09/23 06:59:31;;;;;;;0.60;0.40;;;21.60;64.30;;;;;;5146954;27;45386;-74
2022/09/23 07:01:58;;;;;;;1.15;0.52;;;21.60;64.40;;;;;;5147488;27;45493;-73
2022/09/23 07:04:24;;;;;;;0.45;0.45;;;21.60;64.50;;;;;;5146710;27;46279;-74
2022/09/23 07:06:54;;;;;;;0.90;0.50;;;21.60;64.90;;;;;;5144306;27;45345;-74
2022/09/23 07:09:21;;;;;;;0.47;0.40;;;21.60;65.20;;;;;;5148554;27;45489;-74
2022/09/23 07:11:47;;;;;;;0.60;0.40;;;21.60;65.30;;;;;;5146301;27;45622;-73
2022/09/23 07:14:15;;;;;;;1.20;0.43;;;21.60;65.50;;;;;;5149671;27;46982;-74
2022/09/23 07:16:44;;;;;;;0.32;0.32;;;21.60;65.40;;;;;;5144440;27;45492;-74
2022/09/23 07:19:12;;;;;;;0.73;0.50;;;21.70;65.40;;;;;;5143433;27;45272;-75
2022/09/23 07:21:39;;;;;;;0.90;0.57;;;21.60;65.20;;;;;;5147770;27;45421;-74
2022/09/23 07:24:06;;;;;;;0.57;0.45;;;21.60;65.40;;;;;;5145591;27;46591;-74
2022/09/23 07:26:34;;;;;;;0.88;0.63;;;21.60;65.40;;;;;;5145773;27;45532;-74
2022/09/23 07:29:03;;;;;;;0.50;0.50;;;21.60;65.40;;;;;;5140793;27;45390;-74
2022/09/23 07:31:31;;;;;;;0.40;0.40;;;21.60;65.40;;;;;;5140999;27;45561;-74
2022/09/23 07:34:00;;;;;;;1.27;0.50;;;21.60;65.40;;;;;;5136348;27;45331;-74
2022/09/23 07:36:30;;;;;;;0.50;0.40;;;21.60;65.40;;;;;;5146488;27;45427;-74
2022/09/23 07:39:01;;;;;;;0.50;0.40;;;21.60;65.40;;;;;;5146535;27;45401;-74
2022/09/23 07:41:28;;;;;;;1.83;0.50;;;21.60;65.50;;;;;;5141939;27;45255;-74
2022/09/23 07:43:57;;;;;;;0.40;0.40;;;21.60;65.60;;;;;;5146896;27;47870;-74
2022/09/23 07:46:26;;;;;;;0.52;0.52;;;21.60;65.90;;;;;;5146272;27;45621;-74
2022/09/23 07:48:54;;;;;;;0.80;0.40;;;21.60;65.90;;;;;;5143045;27;45346;-74
2022/09/23 07:51:26;;;;;;;0.38;0.38;;;21.60;65.90;;;;;;5145999;27;45413;-74
2022/09/23 07:53:54;;;;;;;0.50;0.40;;;21.60;66.00;;;;;;5147914;27;46846;-75
2022/09/23 07:56:24;;;;;;;0.45;0.38;;;21.60;66.00;;;;;;5143442;27;45759;-74
2022/09/23 07:58:58;;;;;;;0.88;0.50;;;21.60;66.00;;;;;;5137920;27;45341;-74
2022/09/23 08:01:26;;;;;;;0.50;0.40;;;21.60;66.00;;;;;;5145327;27;45675;-74
2022/09/23 08:03:52;;;;;;;0.90;0.50;;;21.60;66.30;;;;;;5137824;27;48638;-74
2022/09/23 08:06:19;;;;;;;0.52;0.50;;;21.60;66.30;;;;;;5133447;27;45469;-74
2022/09/23 08:08:47;;;;;;;0.55;0.40;;;21.60;66.10;;;;;;5143915;27;45428;-75
2022/09/23 08:11:14;;;;;;;1.10;0.47;;;21.60;66.10;;;;;;5145602;27;45414;-74
2022/09/23 08:13:41;;;;;;;0.73;0.50;;;21.60;66.10;;;;;;5144984;27;46658;-74
2022/09/23 08:16:09;;;;;;;0.75;0.40;;;21.60;66.10;;;;;;5141981;27;45338;-74
2022/09/23 08:18:36;;;;;;;1.15;0.40;;;21.60;66.30;;;;;;5142585;27;45518;-74
2022/09/23 08:21:03;;;;;;;0.70;0.50;;;21.60;66.30;;;;;;5143233;27;45565;-71
2022/09/23 08:23:32;;;;;;;0.30;0.25;;;21.60;66.30;;;;;;5144356;27;47517;-74
2022/09/23 08:26:03;;;;;;;1.00;0.52;;;21.60;66.50;;;;;;5141480;27;45217;-74
2022/09/23 08:28:32;;;;;;;0.60;0.50;;;21.60;66.60;;;;;;5141999;27;45387;-74
2022/09/23 08:30:58;;;;;;;0.52;0.50;;;21.60;66.60;;;;;;5138942;27;45663;-74
2022/09/23 08:33:25;;;;;;;0.68;0.30;;;21.60;66.50;;;;;;5137691;27;45348;-74
2022/09/23 08:35:58;;;;;;;1.30;0.40;;;21.60;66.20;;;;;;5141755;27;45521;-74
2022/09/23 08:38:25;;;;;;;0.82;0.40;;;21.60;66.00;;;;;;5137639;27;45378;-73
2022/09/23 08:40:55;;;;;;;0.93;0.60;;;21.60;65.80;;;;;;5126991;27;45328;-73
2022/09/23 08:43:26;;;;;;;0.60;0.60;;;21.60;65.60;;;;;;5134182;27;47783;-74
2022/09/23 08:45:57;;;;;;;0.82;0.45;;;21.60;64.60;;;;;;5144276;27;45383;-74
2022/09/23 08:48:29;;;;;;;1.00;0.65;;;21.60;63.10;;;;;;5144389;27;45337;-74
2022/09/23 08:51:02;;;;;;;0.77;0.52;;;21.60;62.60;;;;;;5144139;27;45560;-74
2022/09/23 08:53:30;;;;;;;0.60;0.60;;;21.60;62.40;;;;;;5137503;27;46141;-73
2022/09/23 08:56:00;;;;;;;1.23;0.60;;;21.60;62.30;;;;;;5140055;27;45421;-73
2022/09/23 08:58:42;;;;;;;0.45;0.45;;;21.60;63.20;;;;;;5131596;27;45288;-74
2022/09/23 09:01:18;;;;;;;1.50;0.60;;;21.60;64.00;;;;;;5141968;27;45541;-74
2022/09/23 09:03:49;;;;;;;0.45;0.45;;;21.60;64.20;;;;;;5135441;27;47341;-74
2022/09/23 09:06:20;;;;;;;0.60;0.52;;;21.60;65.00;;;;;;5134464;27;45878;-74
2022/09/23 09:08:54;;;;;;;1.13;0.70;;;21.60;65.20;;;;;;5136769;27;45359;-74
2022/09/23 09:11:23;;;;;;;0.63;0.57;;;21.60;65.50;;;;;;5131066;27;45545;-73
2022/09/23 09:13:59;;;;;;;1.10;0.47;;;21.70;65.90;;;;;;5126877;27;47280;-74
2022/09/23 09:16:41;;;;;;;1.15;0.50;;;21.70;66.10;;;;;;5135718;27;45396;-74
2022/09/23 09:19:15;;;;;;;1.73;0.60;;;21.70;66.20;;;;;;5141942;27;45502;-74
2022/09/23 09:21:43;;;;;;;0.40;0.30;;;21.70;66.30;;;;;;5138519;27;45303;-73
2022/09/23 09:24:17;;;;;;;1.75;0.50;;;21.70;66.40;;;;;;5130317;27;45493;-73
2022/09/23 09:26:44;;;;;;;1.70;0.50;;;21.70;66.40;;;;;;5125999;27;45526;-74
2022/09/23 09:29:17;;;;;;;1.13;0.50;;;21.70;67.10;;;;;;5138565;27;45658;-75
2022/09/23 09:31:46;;;;;;;1.10;0.68;;;21.80;67.60;;;;;;5140788;27;45556;-73
2022/09/23 09:34:22;;;;;;;0.85;0.60;;;21.80;67.30;;;;;;5145978;27;46714;-74
2022/09/23 09:37:00;;;;;;;1.45;0.90;;;21.70;67.10;;;;;;5145971;27;45619;-74
2022/09/23 09:39:27;;;;;;;1.00;0.50;;;21.70;67.00;;;;;;5140292;27;45585;-74
2022/09/23 09:41:57;;;;;;;1.45;0.60;;;21.80;67.20;;;;;;5142066;27;45335;-74
2022/09/23 09:44:33;;;;;;;1.55;0.55;;;21.70;67.10;;;;;;5147528;27;46220;-73
2022/09/23 09:47:17;;;;;;;0.57;0.50;;;21.70;67.10;;;;;;5162784;27;45280;-74
2022/09/23 09:49:51;;;;;;;1.20;0.52;;;21.70;67.10;;;;;;5146342;27;45324;-74
2022/09/23 09:52:22;;;;;;;0.85;0.50;;;21.70;67.30;;;;;;5146057;27;45669;-74
2022/09/23 09:54:49;;;;;;;1.17;0.70;;;21.70;67.20;;;;;;5145519;27;48449;-74
2022/09/23 09:57:29;;;;;;;0.90;0.50;;;21.70;67.20;;;;;;5145512;27;45985;-74
2022/09/23 09:59:58;;;;;;;1.77;0.63;;;21.70;67.40;;;;;;5146220;27;45234;-74
2022/09/23 10:02:29;;;;;;;0.95;0.52;;;21.70;67.50;;;;;;5145912;27;45508;-74
2022/09/23 10:04:59;;;;;;;2.35;0.52;;;21.70;67.60;;;;;;5146164;27;46975;-74
2022/09/23 10:07:29;;;;;;;2.58;0.65;;;21.70;67.50;;;;;;5145896;27;45310;-74
2022/09/23 10:09:56;;;;;;;0.90;0.60;;;21.70;67.70;;;;;;5146352;27;45268;-74
2022/09/23 10:12:24;;;;;;;0.98;0.63;;;21.70;67.70;;;;;;5146416;27;45453;-74
2022/09/23 10:14:55;;;;;;;1.67;0.50;;;21.70;67.80;;;;;;5145521;27;47795;-74
2022/09/23 10:17:30;;;;;;;1.02;0.65;;;21.70;67.90;;;;;;5146360;27;45290;-74
2022/09/23 10:20:00;;;;;;;1.95;0.50;;;21.70;67.90;;;;;;5146006;27;45267;-74
2022/09/23 10:22:31;;;;;;;1.02;0.70;;;21.70;67.90;;;;;;5146387;27;45534;-74
2022/09/23 10:25:02;;;;;;;0.68;0.55;;;21.70;67.90;;;;;;5145628;27;45579;-74
2022/09/23 10:27:33;;;;;;;0.65;0.50;;;21.80;68.10;;;;;;5148358;27;45353;-74
2022/09/23 10:30:02;;;;;;;1.75;0.50;;;21.80;68.00;;;;;;5150390;27;45306;-74
2022/09/23 10:32:36;;;;;;;0.98;0.50;;;21.70;68.10;;;;;;5149895;27;45429;-74
2022/09/23 10:35:14;;;;;;;1.10;0.70;;;21.80;68.20;;;;;;5149543;27;45444;-75
2022/09/23 10:37:45;;;;;;;2.25;0.50;;;21.70;68.20;;;;;;5149731;27;45270;-74
2022/09/23 10:49:19;;;;;;;0.70;0.50;;;21.70;68.20;;;;;;5126630;27;45316;-74
2022/09/23 10:51:57;;;;;;;0.68;0.50;;;21.70;68.50;;;;;;5128390;27;45424;-74
2022/09/23 10:54:36;;;;;;;1.30;0.60;;;21.70;68.60;;;;;;5128148;27;45376;-74
2022/09/23 11:00:03;;;;;;;0.55;0.30;;;21.70;68.70;;;;;;5127259;27;45399;-74
2022/09/23 11:02:51;;;;;;;1.10;0.63;;;21.70;69.00;;;;;;5127772;27;45551;-74
2022/09/23 11:05:31;;;;;;;0.55;0.50;;;21.70;69.10;;;;;;5127642;27;45358;-74
2022/09/23 11:08:11;;;;;;;1.83;0.82;;;21.70;69.10;;;;;;5127967;27;46449;-74
2022/09/23 11:10:55;;;;;;;0.63;0.43;;;21.70;69.10;;;;;;5127902;27;46031;-74
2022/09/23 11:13:40;;;;;;;0.57;0.45;;;21.70;69.10;;;;;;5127599;27;45405;-74
2022/09/23 11:16:20;;;;;;;0.75;0.50;;;21.70;69.10;;;;;;5128014;27;45432;-74
2022/09/23 11:18:59;;;;;;;1.55;0.55;;;21.70;69.10;;;;;;5127430;27;46431;-74
2022/09/23 11:21:43;;;;;;;1.33;0.50;;;21.70;69.00;;;;;;5128072;27;45271;-74
2022/09/23 11:24:34;;;;;;;1.02;0.57;;;21.70;69.10;;;;;;5128255;27;45298;-74
2022/09/23 11:27:11;;;;;;;0.75;0.55;;;21.70;69.10;;;;;;5127885;27;45201;-74
2022/09/23 11:30:00;;;;;;;0.75;0.30;;;21.70;69.10;;;;;;5127880;27;48602;-74
2022/09/23 11:33:03;;;;;;;0.50;0.35;;;21.70;69.10;;;;;;5133232;27;45345;-74
2022/09/23 11:35:36;;;;;;;0.60;0.40;;;21.70;69.20;;;;;;5106340;27;45366;-74
2022/09/23 11:38:10;;;;;;;0.75;0.40;;;21.60;69.00;;;;;;5125676;27;45350;-74
2022/09/23 11:40:39;;;;;;;1.02;0.50;;;21.70;69.20;;;;;;5127339;27;47437;-73
2022/09/23 11:43:17;;;;;;;1.23;0.50;;;21.70;69.30;;;;;;5126974;27;45305;-74
2022/09/23 11:45:49;;;;;;;0.60;0.40;;;21.70;69.30;;;;;;5127274;27;45381;-74
2022/09/23 11:48:22;;;;;;;1.73;0.45;;;21.70;69.20;;;;;;5127150;27;45496;-74
2022/09/23 11:50:56;;;;;;;0.85;0.45;;;21.70;69.30;;;;;;5126639;27;46284;-74
2022/09/23 11:53:40;;;;;;;0.40;0.40;;;21.60;69.20;;;;;;5127004;27;45432;-74
2022/09/23 11:56:14;;;;;;;0.55;0.38;;;21.70;69.30;;;;;;5124154;27;45295;-74
2022/09/23 11:58:46;;;;;;;0.40;0.40;;;21.60;69.20;;;;;;5127254;27;45312;-75
2022/09/23 12:01:19;;;;;;;0.63;0.60;;;21.60;69.20;;;;;;5126752;27;46277;-74
2022/09/23 12:03:53;;;;;;;0.30;0.30;;;21.60;69.20;;;;;;5126856;27;45714;-74
2022/09/23 12:06:22;;;;;;;0.30;0.30;;;21.60;69.20;;;;;;5127307;27;45276;-73
2022/09/23 12:08:56;;;;;;;0.45;0.30;;;21.70;69.30;;;;;;5126841;27;45298;-74
2022/09/23 12:11:29;;;;;;;0.38;0.30;;;21.70;69.40;;;;;;5127033;27;45377;-74
2022/09/23 12:14:07;;;;;;;0.30;0.30;;;21.70;69.30;;;;;;5126804;27;46369;-74
2022/09/23 12:17:06;;;;;;;0.40;0.40;;;21.70;69.20;;;;;;5126650;27;45255;-74
2022/09/23 12:19:48;;;;;;;0.40;0.40;;;21.70;69.30;;;;;;5147164;27;45317;-73
2022/09/23 12:22:26;;;;;;;0.40;0.30;;;21.70;70.30;;;;;;5147120;27;46250;-74
2022/09/23 12:25:09;;;;;;;0.40;0.35;;;21.70;69.30;;;;;;5146322;27;45575;-74
2022/09/23 12:27:42;;;;;;;1.10;0.50;;;21.70;69.30;;;;;;5147405;27;45448;-74
2022/09/23 12:30:14;;;;;;;0.25;0.25;;;21.70;69.20;;;;;;5147740;27;45289;-74
2022/09/23 12:32:42;;;;;;;0.75;0.30;;;21.70;69.40;;;;;;5147123;27;46375;-74
2022/09/23 12:35:21;;;;;;;0.35;0.30;;;21.70;69.40;;;;;;5147339;27;45355;-74
2022/09/23 12:37:49;;;;;;;2.08;0.30;;;21.70;69.50;;;;;;5147033;27;45353;-75
2022/09/23 12:40:22;;;;;;;0.20;0.20;;;21.70;69.50;;;;;;5137952;27;45393;-74
2022/09/23 12:42:50;;;;;;;0.63;0.32;;;21.70;69.60;;;;;;5126255;27;47335;-74
2022/09/23 12:45:34;;;;;;;1.05;0.57;;;21.70;69.70;;;;;;5126106;27;45286;-74
2022/09/23 12:48:03;;;;;;;0.55;0.40;;;21.60;69.50;;;;;;5126516;27;45407;-74
2022/09/23 12:50:50;;;;;;;0.45;0.43;;;21.60;69.60;;;;;;5126086;27;45581;-74
2022/09/23 12:53:53;;;;;;;0.75;0.40;;;21.60;69.70;;;;;;5125917;27;47311;-74
2022/09/23 12:56:25;;;;;;;0.30;0.20;;;21.60;69.70;;;;;;5123437;27;45265;-74
2022/09/23 12:59:10;;;;;;;0.38;0.30;;;21.60;69.70;;;;;;5147031;27;45371;-74
2022/09/23 13:01:38;;;;;;;0.30;0.30;;;21.60;69.70;;;;;;5146628;27;45302;-74
2022/09/23 13:06:56;;;;;;;0.40;0.40;;;21.60;69.60;;;;;;5146521;27;45290;-74
2022/09/23 13:09:28;;;;;;;0.50;0.32;;;21.60;69.40;;;;;;5147055;27;45273;-75
2022/09/23 13:12:00;;;;;;;0.40;0.30;;;21.60;69.40;;;;;;5147285;27;45283;-74
2022/09/23 13:14:31;;;;;;;0.35;0.35;;;21.60;69.40;;;;;;5146913;27;47374;-74
2022/09/23 13:16:59;;;;;;;0.20;0.20;;;21.70;69.50;;;;;;5146280;27;45361;-74
2022/09/23 13:19:45;;;;;;;0.13;0.13;;;21.70;69.50;;;;;;5146484;27;45446;-74
2022/09/23 13:22:12;;;;;;;0.60;0.43;;;21.60;69.40;;;;;;5146637;27;45612;-74
2022/09/23 13:24:44;;;;;;;0.38;0.30;;;21.70;69.50;;;;;;5146529;27;45350;-74
2022/09/23 13:27:17;;;;;;;0.20;0.20;;;21.70;69.60;;;;;;5146581;27;45279;-75